sensor_id;sensor_type;location;lat;lon;timestamp;pressure;altitude;pressure_sealevel;temperature;humidity
59650;BME280;46162;57.568;25.814;2022-09-20T00:02:03;99663.84;;;6.32;100.00
59650;BME280;46162;57.568;25.814;2022-09-20T00:04:32;99662.00;;;6.32;100.00
59650;BME280;46162;57.568;25.814;2022-09-20T00:07:01;99667.03;;;6.35;100.00
59650;BME280;46162;57.568;25.814;2022-09-20T00:09:29;99667.59;;;6.39;100.00
59650;BME280;46162;57.568;25.814;2022-09-20T00:11:58;99668.31;;;6.41;100.00
59650;BME280;46162;57.568;25.814;2022-09-20T00:14:27;99670.69;;;6.44;100.00
59650;BME280;46162;57.568;25.814;2022-09-20T00:16:57;99680.41;;;6.45;100.00
59650;BME280;46162;57.568;25.814;2022-09-20T00:19:25;99675.19;;;6.43;100.00
59650;BME280;46162;57.568;25.814;2022-09-20T00:21:54;99684.09;;;6.44;100.00
59650;BME280;46162;57.568;25.814;2022-09-20T00:24:23;99681.09;;;6.47;100.00
59650;BME280;46162;57.568;25.814;2022-09-20T00:26:51;99689.44;;;6.44;100.00
59650;BME280;46162;57.568;25.814;2022-09-20T00:29:21;99689.84;;;6.49;100.00
59650;BME280;46162;57.568;25.814;2022-09-20T00:31:51;99685.47;;;6.48;100.00
59650;BME280;46162;57.568;25.814;2022-09-20T00:34:21;99687.69;;;6.53;100.00
59650;BME280;46162;57.568;25.814;2022-09-20T00:37:07;99693.31;;;6.59;100.00
59650;BME280;46162;57.568;25.814;2022-09-20T00:39:35;99697.53;;;6.62;100.00
59650;BME280;46162;57.568;25.814;2022-09-20T00:42:05;99697.53;;;6.62;100.00
59650;BME280;46162;57.568;25.814;2022-09-20T00:44:44;99699.06;;;6.64;100.00
59650;BME280;46162;57.568;25.814;2022-09-20T00:47:23;99705.69;;;6.70;100.00
59650;BME280;46162;57.568;25.814;2022-09-20T00:49:58;99700.16;;;6.72;100.00
59650;BME280;46162;57.568;25.814;2022-09-20T00:52:30;99707.03;;;6.74;100.00
59650;BME280;46162;57.568;25.814;2022-09-20T00:55:00;99708.56;;;6.77;100.00
59650;BME280;46162;57.568;25.814;2022-09-20T00:57:30;99715.66;;;6.78;100.00
59650;BME280;46162;57.568;25.814;2022-09-20T01:00:02;99714.63;;;6.79;100.00
59650;BME280;46162;57.568;25.814;2022-09-20T01:02:32;99718.84;;;6.81;100.00
59650;BME280;46162;57.568;25.814;2022-09-20T01:05:05;99714.34;;;6.82;100.00
59650;BME280;46162;57.568;25.814;2022-09-20T01:07:35;99716.31;;;6.80;100.00
59650;BME280;46162;57.568;25.814;2022-09-20T01:10:05;99711.66;;;6.82;100.00
59650;BME280;46162;57.568;25.814;2022-09-20T01:12:34;99715.88;;;6.84;100.00
59650;BME280;46162;57.568;25.814;2022-09-20T01:15:07;99713.50;;;6.81;100.00
59650;BME280;46162;57.568;25.814;2022-09-20T01:17:39;99720.53;;;6.82;100.00
59650;BME280;46162;57.568;25.814;2022-09-20T01:20:15;99724.78;;;6.85;100.00
59650;BME280;46162;57.568;25.814;2022-09-20T01:22:53;99724.78;;;6.85;100.00
59650;BME280;46162;57.568;25.814;2022-09-20T01:25:42;99726.78;;;6.83;100.00
59650;BME280;46162;57.568;25.814;2022-09-20T01:28:17;99725.06;;;6.82;100.00
59650;BME280;46162;57.568;25.814;2022-09-20T01:30:51;99728.44;;;6.84;100.00
59650;BME280;46162;57.568;25.814;2022-09-20T01:33:28;99732.66;;;6.86;100.00
59650;BME280;46162;57.568;25.814;2022-09-20T01:36:01;99729.84;;;6.88;100.00
59650;BME280;46162;57.568;25.814;2022-09-20T01:38:39;99729.53;;;6.91;100.00
59650;BME280;46162;57.568;25.814;2022-09-20T01:41:14;99724.84;;;6.93;100.00
59650;BME280;46162;57.568;25.814;2022-09-20T01:43:50;99736.13;;;6.97;100.00
59650;BME280;46162;57.568;25.814;2022-09-20T01:46:29;99733.16;;;7.00;100.00
59650;BME280;46162;57.568;25.814;2022-09-20T01:49:08;99728.63;;;7.00;100.00
59650;BME280;46162;57.568;25.814;2022-09-20T01:58:20;99735.06;;;7.07;100.00
59650;BME280;46162;57.568;25.814;2022-09-20T02:07:15;99745.31;;;7.12;100.00
59650;BME280;46162;57.568;25.814;2022-09-20T02:10:09;99751.38;;;7.14;100.00
59650;BME280;46162;57.568;25.814;2022-09-20T02:12:50;99748.56;;;7.16;100.00
59650;BME280;46162;57.568;25.814;2022-09-20T02:15:34;99745.88;;;7.16;100.00
59650;BME280;46162;57.568;25.814;2022-09-20T02:18:20;99751.63;;;7.21;100.00
59650;BME280;46162;57.568;25.814;2022-09-20T02:21:03;99754.31;;;7.21;100.00
59650;BME280;46162;57.568;25.814;2022-09-20T02:23:39;99759.69;;;7.21;100.00
59650;BME280;46162;57.568;25.814;2022-09-20T02:26:23;99762.38;;;7.21;100.00
59650;BME280;46162;57.568;25.814;2022-09-20T02:29:03;99764.75;;;7.24;100.00
59650;BME280;46162;57.568;25.814;2022-09-20T02:31:48;99763.75;;;7.25;100.00
59650;BME280;46162;57.568;25.814;2022-09-20T02:34:48;99766.44;;;7.25;100.00
59650;BME280;46162;57.568;25.814;2022-09-20T02:37:42;99763.44;;;7.28;100.00
59650;BME280;46162;57.568;25.814;2022-09-20T02:40:23;99764.16;;;7.30;100.00
59650;BME280;46162;57.568;25.814;2022-09-20T02:42:58;99768.38;;;7.32;100.00
59650;BME280;46162;57.568;25.814;2022-09-20T02:45:35;99772.72;;;7.33;100.00
59650;BME280;46162;57.568;25.814;2022-09-20T02:48:07;99775.28;;;7.35;100.00
59650;BME280;46162;57.568;25.814;2022-09-20T02:50:43;99778.09;;;7.33;100.00
59650;BME280;46162;57.568;25.814;2022-09-20T02:53:25;99783.47;;;7.33;100.00
59650;BME280;46162;57.568;25.814;2022-09-20T02:56:07;99784.16;;;7.36;100.00
59650;BME280;46162;57.568;25.814;2022-09-20T02:58:45;99786.00;;;7.35;100.00
59650;BME280;46162;57.568;25.814;2022-09-20T03:01:25;99790.53;;;7.35;100.00
59650;BME280;46162;57.568;25.814;2022-09-20T03:04:10;99792.91;;;7.38;100.00
59650;BME280;46162;57.568;25.814;2022-09-20T03:06:49;99791.75;;;7.40;100.00
59650;BME280;46162;57.568;25.814;2022-09-20T03:09:28;99797.66;;;7.44;100.00
59650;BME280;46162;57.568;25.814;2022-09-20T03:12:13;99806.59;;;7.44;100.00
59650;BME280;46162;57.568;25.814;2022-09-20T03:14:54;99818.16;;;7.45;100.00
59650;BME280;46162;57.568;25.814;2022-09-20T03:17:33;99819.00;;;7.45;100.00
59650;BME280;46162;57.568;25.814;2022-09-20T03:20:18;99818.31;;;7.43;100.00
59650;BME280;46162;57.568;25.814;2022-09-20T03:22:55;99830.06;;;7.42;100.00
59650;BME280;46162;57.568;25.814;2022-09-20T03:25:46;99839.53;;;7.37;100.00
59650;BME280;46162;57.568;25.814;2022-09-20T03:28:47;99836.34;;;7.33;100.00
59650;BME280;46162;57.568;25.814;2022-09-20T03:31:25;99843.53;;;7.32;100.00
59650;BME280;46162;57.568;25.814;2022-09-20T03:34:04;99840.63;;;7.26;100.00
59650;BME280;46162;57.568;25.814;2022-09-20T03:36:44;99841.31;;;7.28;100.00
59650;BME280;46162;57.568;25.814;2022-09-20T03:39:53;99850.75;;;7.32;100.00
59650;BME280;46162;57.568;25.814;2022-09-20T03:42:28;99853.28;;;7.33;100.00
59650;BME280;46162;57.568;25.814;2022-09-20T03:45:06;99855.97;;;7.33;100.00
59650;BME280;46162;57.568;25.814;2022-09-20T03:50:45;99864.91;;;7.24;100.00
59650;BME280;46162;57.568;25.814;2022-09-20T03:53:39;99872.97;;;7.24;100.00
59650;BME280;46162;57.568;25.814;2022-09-20T03:56:30;99874.50;;;7.27;100.00
59650;BME280;46162;57.568;25.814;2022-09-20T03:59:15;99882.13;;;7.31;100.00
59650;BME280;46162;57.568;25.814;2022-09-20T04:02:04;99880.38;;;7.40;100.00
59650;BME280;46162;57.568;25.814;2022-09-20T04:04:41;99884.28;;;7.46;100.00
59650;BME280;46162;57.568;25.814;2022-09-20T04:07:17;99884.28;;;7.46;100.00
59650;BME280;46162;57.568;25.814;2022-09-20T04:10:15;99878.09;;;7.45;100.00
59650;BME280;46162;57.568;25.814;2022-09-20T04:12:58;99888.50;;;7.48;100.00
59650;BME280;46162;57.568;25.814;2022-09-20T04:15:37;99892.03;;;7.49;100.00
59650;BME280;46162;57.568;25.814;2022-09-20T04:18:16;99891.50;;;7.45;100.00
59650;BME280;46162;57.568;25.814;2022-09-20T04:20:51;99903.13;;;7.18;100.00
59650;BME280;46162;57.568;25.814;2022-09-20T04:23:32;99904.78;;;7.19;100.00
59650;BME280;46162;57.568;25.814;2022-09-20T04:26:04;99913.47;;;7.13;100.00
59650;BME280;46162;57.568;25.814;2022-09-20T04:28:39;99916.41;;;7.20;100.00
59650;BME280;46162;57.568;25.814;2022-09-20T04:31:17;99903.66;;;7.22;100.00
59650;BME280;46162;57.568;25.814;2022-09-20T04:33:50;99911.88;;;7.20;100.00
59650;BME280;46162;57.568;25.814;2022-09-20T04:36:49;99921.47;;;7.23;100.00
59650;BME280;46162;57.568;25.814;2022-09-20T04:39:32;99920.63;;;7.22;100.00
59650;BME280;46162;57.568;25.814;2022-09-20T04:42:43;99920.63;;;7.22;100.00
59650;BME280;46162;57.568;25.814;2022-09-20T04:48:47;99933.03;;;7.23;100.00
59650;BME280;46162;57.568;25.814;2022-09-20T05:14:22;99969.84;;;7.41;100.00
59650;BME280;46162;57.568;25.814;2022-09-20T05:17:13;99961.47;;;7.44;100.00
59650;BME280;46162;57.568;25.814;2022-09-20T05:19:59;99973.09;;;7.44;100.00
59650;BME280;46162;57.568;25.814;2022-09-20T05:22:55;99975.47;;;7.47;100.00
59650;BME280;46162;57.568;25.814;2022-09-20T05:25:48;99982.22;;;7.51;100.00
59650;BME280;46162;57.568;25.814;2022-09-20T05:28:25;99989.13;;;7.54;100.00
59650;BME280;46162;57.568;25.814;2022-09-20T05:31:03;99983.63;;;7.56;100.00
59650;BME280;46162;57.568;25.814;2022-09-20T05:33:42;99983.31;;;7.59;100.00
59650;BME280;46162;57.568;25.814;2022-09-20T05:36:19;99986.69;;;7.61;100.00
59650;BME280;46162;57.568;25.814;2022-09-20T05:38:55;99982.72;;;7.65;100.00
59650;BME280;46162;57.568;25.814;2022-09-20T05:41:36;99989.78;;;7.66;100.00
59650;BME280;46162;57.568;25.814;2022-09-20T05:44:16;99997.53;;;7.69;100.00
59650;BME280;46162;57.568;25.814;2022-09-20T05:46:57;100007.00;;;7.73;100.00
59650;BME280;46162;57.568;25.814;2022-09-20T05:49:43;100001.63;;;7.73;100.00
59650;BME280;46162;57.568;25.814;2022-09-20T05:52:32;99996.94;;;7.75;100.00
59650;BME280;46162;57.568;25.814;2022-09-20T05:55:19;99999.19;;;7.80;100.00
59650;BME280;46162;57.568;25.814;2022-09-20T05:58:02;100000.28;;;7.87;100.00
59650;BME280;46162;57.568;25.814;2022-09-20T06:00:40;100007.19;;;7.89;100.00
59650;BME280;46162;57.568;25.814;2022-09-20T06:03:16;100011.25;;;7.93;100.00
59650;BME280;46162;57.568;25.814;2022-09-20T06:06:00;100018.72;;;8.00;100.00
59650;BME280;46162;57.568;25.814;2022-09-20T06:08:45;100025.78;;;8.01;100.00
59650;BME280;46162;57.568;25.814;2022-09-20T06:11:30;100026.16;;;8.06;100.00
59650;BME280;46162;57.568;25.814;2022-09-20T06:14:17;100029.94;;;8.13;100.00
59650;BME280;46162;57.568;25.814;2022-09-20T06:16:56;100037.56;;;8.17;100.00
59650;BME280;46162;57.568;25.814;2022-09-20T06:19:32;100045.41;;;8.29;100.00
59650;BME280;46162;57.568;25.814;2022-09-20T06:22:12;100045.56;;;8.27;100.00
59650;BME280;46162;57.568;25.814;2022-09-20T06:24:45;100052.78;;;8.27;100.00
59650;BME280;46162;57.568;25.814;2022-09-20T06:27:17;100054.38;;;8.37;100.00
59650;BME280;46162;57.568;25.814;2022-09-20T06:29:53;100055.41;;;8.36;100.00
59650;BME280;46162;57.568;25.814;2022-09-20T06:32:24;100056.53;;;8.44;100.00
59650;BME280;46162;57.568;25.814;2022-09-20T06:34:53;100049.75;;;8.39;100.00
59650;BME280;46162;57.568;25.814;2022-09-20T06:37:37;100059.72;;;8.47;100.00
59650;BME280;46162;57.568;25.814;2022-09-20T06:40:33;100068.81;;;8.64;100.00
59650;BME280;46162;57.568;25.814;2022-09-20T06:43:22;100067.19;;;8.71;100.00
59650;BME280;46162;57.568;25.814;2022-09-20T06:45:51;100073.41;;;8.72;100.00
59650;BME280;46162;57.568;25.814;2022-09-20T06:48:20;100081.41;;;8.81;100.00
59650;BME280;46162;57.568;25.814;2022-09-20T06:50:51;100079.94;;;8.87;100.00
59650;BME280;46162;57.568;25.814;2022-09-20T06:53:25;100084.16;;;8.90;100.00
59650;BME280;46162;57.568;25.814;2022-09-20T06:55:55;100083.56;;;8.78;100.00
59650;BME280;46162;57.568;25.814;2022-09-20T06:58:25;100093.56;;;8.86;100.00
59650;BME280;46162;57.568;25.814;2022-09-20T07:00:54;100091.44;;;8.97;100.00
59650;BME280;46162;57.568;25.814;2022-09-20T07:03:23;100096.00;;;8.97;100.00
59650;BME280;46162;57.568;25.814;2022-09-20T07:05:52;100102.44;;;9.04;100.00
59650;BME280;46162;57.568;25.814;2022-09-20T07:08:22;100105.97;;;9.22;100.00
59650;BME280;46162;57.568;25.814;2022-09-20T07:10:51;100111.72;;;9.28;100.00
59650;BME280;46162;57.568;25.814;2022-09-20T07:13:21;100109.50;;;9.23;100.00
59650;BME280;46162;57.568;25.814;2022-09-20T07:15:59;100116.50;;;9.16;100.00
59650;BME280;46162;57.568;25.814;2022-09-20T07:18:29;100117.50;;;9.15;100.00
59650;BME280;46162;57.568;25.814;2022-09-20T07:21:00;100115.78;;;9.32;100.00
59650;BME280;46162;57.568;25.814;2022-09-20T07:23:31;100117.38;;;9.42;100.00
59650;BME280;46162;57.568;25.814;2022-09-20T07:26:00;100122.53;;;9.36;100.00
59650;BME280;46162;57.568;25.814;2022-09-20T07:28:33;100124.91;;;9.39;100.00
59650;BME280;46162;57.568;25.814;2022-09-20T07:31:03;100136.97;;;9.53;100.00
59650;BME280;46162;57.568;25.814;2022-09-20T07:33:35;100127.72;;;9.55;100.00
59650;BME280;46162;57.568;25.814;2022-09-20T07:36:04;100128.81;;;9.71;100.00
59650;BME280;46162;57.568;25.814;2022-09-20T07:38:34;100130.84;;;9.68;100.00
59650;BME280;46162;57.568;25.814;2022-09-20T07:41:04;100136.28;;;9.77;100.00
59650;BME280;46162;57.568;25.814;2022-09-20T07:43:36;100134.06;;;9.72;100.00
59650;BME280;46162;57.568;25.814;2022-09-20T07:46:05;100139.97;;;9.76;100.00
59650;BME280;46162;57.568;25.814;2022-09-20T07:48:35;100140.63;;;9.69;100.00
59650;BME280;46162;57.568;25.814;2022-09-20T07:51:06;100136.75;;;9.72;100.00
59650;BME280;46162;57.568;25.814;2022-09-20T07:53:42;100143.03;;;9.81;100.00
59650;BME280;46162;57.568;25.814;2022-09-20T07:56:13;100140.88;;;9.84;100.00
59650;BME280;46162;57.568;25.814;2022-09-20T07:58:51;100144.22;;;9.86;100.00
59650;BME280;46162;57.568;25.814;2022-09-20T08:01:25;100146.44;;;9.91;100.00
59650;BME280;46162;57.568;25.814;2022-09-20T08:03:58;100153.06;;;9.97;100.00
59650;BME280;46162;57.568;25.814;2022-09-20T08:06:27;100155.25;;;10.01;100.00
59650;BME280;46162;57.568;25.814;2022-09-20T08:08:58;100158.00;;;10.09;100.00
59650;BME280;46162;57.568;25.814;2022-09-20T08:11:27;100167.78;;;10.10;100.00
59650;BME280;46162;57.568;25.814;2022-09-20T08:13:58;100168.50;;;10.21;100.00
59650;BME280;46162;57.568;25.814;2022-09-20T08:16:37;100174.06;;;10.19;100.00
59650;BME280;46162;57.568;25.814;2022-09-20T08:19:06;100178.81;;;10.25;100.00
59650;BME280;46162;57.568;25.814;2022-09-20T08:21:35;100175.13;;;10.26;100.00
59650;BME280;46162;57.568;25.814;2022-09-20T08:24:07;100184.91;;;10.27;100.00
59650;BME280;46162;57.568;25.814;2022-09-20T08:26:36;100187.94;;;10.24;100.00
59650;BME280;46162;57.568;25.814;2022-09-20T08:29:04;100187.59;;;10.27;100.00
59650;BME280;46162;57.568;25.814;2022-09-20T08:31:36;100190.81;;;10.31;100.00
59650;BME280;46162;57.568;25.814;2022-09-20T08:34:07;100194.91;;;10.35;100.00
59650;BME280;46162;57.568;25.814;2022-09-20T08:36:38;100202.06;;;10.52;100.00
59650;BME280;46162;57.568;25.814;2022-09-20T08:39:09;100214.03;;;10.58;100.00
59650;BME280;46162;57.568;25.814;2022-09-20T08:42:08;100215.19;;;10.47;100.00
59650;BME280;46162;57.568;25.814;2022-09-20T08:44:45;100212.00;;;10.52;100.00
59650;BME280;46162;57.568;25.814;2022-09-20T08:47:25;100214.44;;;10.63;100.00
59650;BME280;46162;57.568;25.814;2022-09-20T08:49:56;100220.66;;;10.64;100.00
59650;BME280;46162;57.568;25.814;2022-09-20T08:52:37;100220.31;;;10.67;100.00
59650;BME280;46162;57.568;25.814;2022-09-20T08:55:13;100218.31;;;10.69;100.00
59650;BME280;46162;57.568;25.814;2022-09-20T08:57:46;100220.06;;;10.86;100.00
59650;BME280;46162;57.568;25.814;2022-09-20T09:00:19;100220.38;;;10.83;100.00
59650;BME280;46162;57.568;25.814;2022-09-20T09:02:48;100224.91;;;10.83;100.00
59650;BME280;46162;57.568;25.814;2022-09-20T09:05:40;100227.50;;;11.01;100.00
59650;BME280;46162;57.568;25.814;2022-09-20T09:08:14;100229.69;;;10.97;100.00
59650;BME280;46162;57.568;25.814;2022-09-20T09:10:50;100239.34;;;11.16;100.00
59650;BME280;46162;57.568;25.814;2022-09-20T09:13:25;100234.44;;;11.19;100.00
59650;BME280;46162;57.568;25.814;2022-09-20T09:15:58;100231.94;;;11.18;100.00
59650;BME280;46162;57.568;25.814;2022-09-20T09:18:31;100243.38;;;11.20;100.00
59650;BME280;46162;57.568;25.814;2022-09-20T09:21:02;100241.38;;;11.14;100.00
59650;BME280;46162;57.568;25.814;2022-09-20T09:23:38;100247.31;;;11.26;100.00
59650;BME280;46162;57.568;25.814;2022-09-20T09:26:17;100256.63;;;11.48;100.00
59650;BME280;46162;57.568;25.814;2022-09-20T09:29:07;100255.25;;;11.35;100.00
59650;BME280;46162;57.568;25.814;2022-09-20T09:31:36;100248.50;;;11.48;100.00
59650;BME280;46162;57.568;25.814;2022-09-20T09:34:22;100254.25;;;11.53;100.00
59650;BME280;46162;57.568;25.814;2022-09-20T09:36:51;100257.09;;;11.59;100.00
59650;BME280;46162;57.568;25.814;2022-09-20T09:39:23;100259.97;;;11.66;100.00
59650;BME280;46162;57.568;25.814;2022-09-20T09:41:54;100262.69;;;11.74;100.00
59650;BME280;46162;57.568;25.814;2022-09-20T09:44:29;100264.56;;;11.82;100.00
59650;BME280;46162;57.568;25.814;2022-09-20T09:47:00;100265.72;;;11.71;100.00
59650;BME280;46162;57.568;25.814;2022-09-20T09:49:29;100280.13;;;11.88;100.00
59650;BME280;46162;57.568;25.814;2022-09-20T09:52:09;100273.84;;;12.04;100.00
59650;BME280;46162;57.568;25.814;2022-09-20T09:54:40;100273.19;;;12.02;100.00
59650;BME280;46162;57.568;25.814;2022-09-20T09:57:22;100277.38;;;12.13;100.00
59650;BME280;46162;57.568;25.814;2022-09-20T10:00:04;100277.25;;;11.98;100.00
59650;BME280;46162;57.568;25.814;2022-09-20T10:02:56;100278.91;;;11.82;100.00
59650;BME280;46162;57.568;25.814;2022-09-20T10:05:32;100283.66;;;11.80;100.00
59650;BME280;46162;57.568;25.814;2022-09-20T10:08:14;100285.19;;;11.91;100.00
59650;BME280;46162;57.568;25.814;2022-09-20T10:10:57;100293.31;;;11.99;100.00
59650;BME280;46162;57.568;25.814;2022-09-20T10:13:37;100294.34;;;11.90;100.00
59650;BME280;46162;57.568;25.814;2022-09-20T10:16:16;100298.34;;;11.86;100.00
59650;BME280;46162;57.568;25.814;2022-09-20T10:18:55;100301.91;;;12.03;100.00
59650;BME280;46162;57.568;25.814;2022-09-20T10:21:40;100295.50;;;12.12;100.00
59650;BME280;46162;57.568;25.814;2022-09-20T10:24:23;100302.44;;;11.98;100.00
59650;BME280;46162;57.568;25.814;2022-09-20T10:27:07;100303.09;;;11.76;100.00
59650;BME280;46162;57.568;25.814;2022-09-20T10:29:55;100304.31;;;11.90;100.00
59650;BME280;46162;57.568;25.814;2022-09-20T10:32:35;100308.66;;;11.74;100.00
59650;BME280;46162;57.568;25.814;2022-09-20T10:35:22;100312.91;;;11.85;100.00
59650;BME280;46162;57.568;25.814;2022-09-20T10:38:05;100309.38;;;11.93;100.00
59650;BME280;46162;57.568;25.814;2022-09-20T10:40:45;100311.72;;;12.04;100.00
59650;BME280;46162;57.568;25.814;2022-09-20T10:43:49;100313.75;;;12.10;100.00
59650;BME280;46162;57.568;25.814;2022-09-20T10:46:28;100325.63;;;12.09;100.00
59650;BME280;46162;57.568;25.814;2022-09-20T10:49:06;100316.47;;;12.02;100.00
59650;BME280;46162;57.568;25.814;2022-09-20T10:51:43;100318.16;;;11.95;100.00
59650;BME280;46162;57.568;25.814;2022-09-20T10:54:25;100318.47;;;12.16;100.00
59650;BME280;46162;57.568;25.814;2022-09-20T10:57:10;100319.16;;;12.10;100.00
59650;BME280;46162;57.568;25.814;2022-09-20T10:59:49;100323.03;;;12.16;100.00
59650;BME280;46162;57.568;25.814;2022-09-20T11:02:38;100323.72;;;12.34;100.00
59650;BME280;46162;57.568;25.814;2022-09-20T11:05:24;100324.53;;;12.43;100.00
59650;BME280;46162;57.568;25.814;2022-09-20T11:08:00;100328.63;;;12.22;100.00
59650;BME280;46162;57.568;25.814;2022-09-20T11:10:34;100331.31;;;12.39;100.00
59650;BME280;46162;57.568;25.814;2022-09-20T11:13:07;100331.50;;;12.29;100.00
59650;BME280;46162;57.568;25.814;2022-09-20T11:15:42;100335.38;;;12.35;100.00
59650;BME280;46162;57.568;25.814;2022-09-20T11:18:15;100338.41;;;12.40;100.00
59650;BME280;46162;57.568;25.814;2022-09-20T11:20:55;100336.88;;;12.37;100.00
59650;BME280;46162;57.568;25.814;2022-09-20T11:23:31;100338.75;;;12.29;100.00
59650;BME280;46162;57.568;25.814;2022-09-20T11:26:09;100334.66;;;12.41;100.00
59650;BME280;46162;57.568;25.814;2022-09-20T11:28:41;100340.09;;;12.49;100.00
59650;BME280;46162;57.568;25.814;2022-09-20T11:31:18;100341.56;;;12.60;100.00
59650;BME280;46162;57.568;25.814;2022-09-20T11:33:54;100339.56;;;12.45;100.00
59650;BME280;46162;57.568;25.814;2022-09-20T11:36:29;100341.25;;;12.55;100.00
59650;BME280;46162;57.568;25.814;2022-09-20T11:39:03;100337.38;;;12.49;100.00
59650;BME280;46162;57.568;25.814;2022-09-20T11:41:33;100339.41;;;12.47;100.00
59650;BME280;46162;57.568;25.814;2022-09-20T11:44:06;100350.59;;;12.36;100.00
59650;BME280;46162;57.568;25.814;2022-09-20T11:46:44;100352.78;;;12.40;100.00
59650;BME280;46162;57.568;25.814;2022-09-20T11:49:18;100356.00;;;12.44;100.00
59650;BME280;46162;57.568;25.814;2022-09-20T11:52:25;100356.84;;;12.28;100.00
59650;BME280;46162;57.568;25.814;2022-09-20T11:55:22;100362.97;;;12.22;100.00
59650;BME280;46162;57.568;25.814;2022-09-20T11:58:03;100363.97;;;11.96;100.00
59650;BME280;46162;57.568;25.814;2022-09-20T12:00:35;100363.13;;;11.79;100.00
59650;BME280;46162;57.568;25.814;2022-09-20T12:03:07;100363.28;;;11.70;100.00
59650;BME280;46162;57.568;25.814;2022-09-20T12:05:56;100370.16;;;11.64;100.00
59650;BME280;46162;57.568;25.814;2022-09-20T12:08:29;100372.88;;;11.64;100.00
59650;BME280;46162;57.568;25.814;2022-09-20T12:11:01;100369.47;;;11.54;100.00
59650;BME280;46162;57.568;25.814;2022-09-20T12:13:33;100379.31;;;11.71;100.00
59650;BME280;46162;57.568;25.814;2022-09-20T12:16:04;100377.78;;;11.69;100.00
59650;BME280;46162;57.568;25.814;2022-09-20T12:19:00;100377.28;;;11.65;100.00
59650;BME280;46162;57.568;25.814;2022-09-20T12:24:39;100391.50;;;11.75;100.00
59650;BME280;46162;57.568;25.814;2022-09-20T12:30:18;100389.78;;;11.74;100.00
59650;BME280;46162;57.568;25.814;2022-09-20T12:32:58;100384.75;;;11.79;100.00
59650;BME280;46162;57.568;25.814;2022-09-20T12:35:59;100398.09;;;11.81;100.00
59650;BME280;46162;57.568;25.814;2022-09-20T12:39:15;100391.66;;;11.74;100.00
59650;BME280;46162;57.568;25.814;2022-09-20T12:41:55;100395.41;;;11.89;100.00
59650;BME280;46162;57.568;25.814;2022-09-20T12:44:30;100391.03;;;11.88;100.00
59650;BME280;46162;57.568;25.814;2022-09-20T12:47:01;100397.97;;;11.91;100.00
59650;BME280;46162;57.568;25.814;2022-09-20T12:49:41;100398.31;;;12.12;100.00
59650;BME280;46162;57.568;25.814;2022-09-20T12:52:52;100396.13;;;12.16;100.00
59650;BME280;46162;57.568;25.814;2022-09-20T12:55:41;100405.09;;;12.24;100.00
59650;BME280;46162;57.568;25.814;2022-09-20T12:58:27;100402.53;;;12.47;100.00
59650;BME280;46162;57.568;25.814;2022-09-20T13:01:30;100397.47;;;12.44;100.00
59650;BME280;46162;57.568;25.814;2022-09-20T13:07:47;100413.69;;;12.53;100.00
59650;BME280;46162;57.568;25.814;2022-09-20T13:10:28;100416.91;;;12.48;100.00
59650;BME280;46162;57.568;25.814;2022-09-20T13:13:14;100412.84;;;12.52;100.00
59650;BME280;46162;57.568;25.814;2022-09-20T13:15:48;100420.47;;;12.57;100.00
59650;BME280;46162;57.568;25.814;2022-09-20T13:18:19;100422.13;;;12.58;100.00
59650;BME280;46162;57.568;25.814;2022-09-20T13:20:49;100426.06;;;12.47;100.00
59650;BME280;46162;57.568;25.814;2022-09-20T13:23:22;100434.50;;;12.36;100.00
59650;BME280;46162;57.568;25.814;2022-09-20T13:25:54;100441.97;;;12.25;100.00
59650;BME280;46162;57.568;25.814;2022-09-20T13:28:36;100448.38;;;12.08;100.00
59650;BME280;46162;57.568;25.814;2022-09-20T13:31:29;100451.00;;;11.83;100.00
59650;BME280;46162;57.568;25.814;2022-09-20T13:34:18;100442.41;;;11.80;100.00
59650;BME280;46162;57.568;25.814;2022-09-20T13:36:48;100449.81;;;11.86;100.00
59650;BME280;46162;57.568;25.814;2022-09-20T13:39:29;100452.00;;;11.74;100.00
59650;BME280;46162;57.568;25.814;2022-09-20T13:42:00;100459.75;;;11.69;100.00
59650;BME280;46162;57.568;25.814;2022-09-20T13:44:34;100461.28;;;11.63;100.00
59650;BME280;46162;57.568;25.814;2022-09-20T13:47:20;100460.28;;;11.73;100.00
59650;BME280;46162;57.568;25.814;2022-09-20T13:49:50;100466.38;;;11.75;100.00
59650;BME280;46162;57.568;25.814;2022-09-20T13:52:23;100470.91;;;11.66;100.00
59650;BME280;46162;57.568;25.814;2022-09-20T13:54:52;100481.84;;;11.56;100.00
59650;BME280;46162;57.568;25.814;2022-09-20T13:57:25;100479.81;;;11.50;100.00
59650;BME280;46162;57.568;25.814;2022-09-20T13:59:57;100484.53;;;11.48;100.00
59650;BME280;46162;57.568;25.814;2022-09-20T14:02:29;100481.47;;;11.43;100.00
59650;BME280;46162;57.568;25.814;2022-09-20T14:04:59;100483.97;;;11.36;100.00
59650;BME280;46162;57.568;25.814;2022-09-20T14:07:29;100493.81;;;11.37;100.00
59650;BME280;46162;57.568;25.814;2022-09-20T14:09:59;100487.69;;;11.35;100.00
59650;BME280;46162;57.568;25.814;2022-09-20T14:12:28;100494.81;;;11.45;100.00
59650;BME280;46162;57.568;25.814;2022-09-20T14:14:59;100499.56;;;11.43;100.00
59650;BME280;46162;57.568;25.814;2022-09-20T14:17:31;100502.16;;;11.52;100.00
59650;BME280;46162;57.568;25.814;2022-09-20T14:20:02;100503.03;;;11.69;100.00
59650;BME280;46162;57.568;25.814;2022-09-20T14:22:32;100511.00;;;11.79;100.00
59650;BME280;46162;57.568;25.814;2022-09-20T14:25:02;100505.84;;;11.94;100.00